PST,Max TemperatureF,Mean TemperatureF,Min TemperatureF,Max Dew PointF,MeanDew PointF,Min DewpointF,Max Humidity, Mean Humidity, Min Humidity, Max Sea Level PressureIn, Mean Sea Level PressureIn, Min Sea Level PressureIn, Max VisibilityMiles, Mean VisibilityMiles, Min VisibilityMiles, Max Wind SpeedMPH, Mean Wind SpeedMPH, Max Gust SpeedMPH,PrecipitationIn, CloudCover, Events, WindDirDegrees
2014-2-1,64,55,44,29,19,11,46,26,14,30.04,29.96,29.86,10,10,10,20,10,25,0.00,1,,336
2014-2-2,61,50,39,20,15,10,30,25,16,30.12,30.02,29.93,10,10,10,7,3,,0.00,0,,181
2014-2-3,64,55,46,31,25,17,43,34,24,29.92,29.88,29.82,10,10,10,6,2,,0.00,1,,207
2014-2-4,63,51,39,34,29,24,53,40,28,30.06,30.00,29.93,10,10,10,8,3,,0.00,0,,331
2014-2-5,66,58,48,35,31,27,50,39,27,30.07,30.01,29.96,10,10,10,7,3,,0.00,3,,299
2014-2-6,69,58,46,43,35,26,69,46,29,30.02,29.94,29.87,10,10,10,18,5,,0.00,4,,220
2014-2-7,70,58,45,43,40,38,80,56,31,30.10,30.03,29.93,10,10,10,17,6,21,0.00,0,,210
2014-2-8,73,60,48,44,39,32,77,49,27,30.21,30.11,30.06,10,10,10,14,7,,0.00,0,,201
2014-2-9,80,63,46,41,36,30,61,39,20,30.11,30.01,29.91,10,10,10,13,5,,0.00,0,,167
2014-2-10,81,66,51,39,36,32,54,34,22,29.99,29.93,29.86,10,10,10,22,6,29,0.00,0,,333
2014-2-11,79,68,57,33,28,23,39,24,13,30.08,30.02,29.95,10,10,10,17,10,22,0.00,0,,341
2014-2-12,80,65,50,37,28,24,36,26,15,30.16,30.07,30.01,10,10,10,9,4,,0.00,0,,146
2014-2-13,81,66,50,35,27,24,38,26,14,30.07,29.98,29.91,10,10,10,7,4,,0.00,0,,287
2014-2-14,84,65,46,35,28,23,39,26,13,30.05,29.97,29.92,10,10,10,9,5,,0.00,0,,341
2014-2-15,84,65,46,36,28,22,39,26,12,30.02,29.94,29.88,10,10,10,10,4,,0.00,0,,179
2014-2-16,81,67,53,39,31,26,40,29,15,29.99,29.94,29.89,10,10,10,8,3,,0.00,0,,6
2014-2-17,84,65,46,38,30,24,50,28,16,30.03,29.94,29.85,10,10,10,10,5,,0.00,0,,200
2014-2-18,82,67,52,34,29,23,43,26,13,29.98,29.90,29.86,10,10,10,9,3,,0.00,0,,287
2014-2-19,84,68,51,31,26,21,38,22,12,29.88,29.81,29.73,10,10,10,9,5,,0.00,0,,213
2014-2-20,77,66,54,17,7,2,17,10,6,30.14,30.03,29.89,10,10,10,23,14,28,0.00,0,,350
2014-2-21,75,64,52,23,12,5,22,15,7,30.06,29.96,29.87,10,10,10,7,3,,0.00,0,,315
2014-2-22,77,62,46,32,21,13,30,23,12,29.94,29.87,29.83,10,10,10,7,3,,0.00,0,,339
2014-2-23,81,64,48,30,23,19,44,23,10,29.98,29.91,29.86,10,10,10,7,4,,0.00,0,,204
2014-2-24,80,64,48,33,25,19,39,24,13,29.99,29.93,29.87,10,10,10,8,4,,0.00,0,,260
2014-2-25,78,64,50,45,34,24,52,33,23,29.97,29.92,29.87,10,10,10,13,6,,0.00,0,,181
2014-2-26,79,66,52,47,42,36,71,44,21,29.98,29.91,29.85,10,10,10,17,7,20,0.00,0,,181
2014-2-27,81,68,54,48,43,34,67,43,19,29.92,29.84,29.75,10,10,10,22,7,30,0.00,0,,208
2014-2-28,82,72,62,60,50,37,81,55,29,29.79,29.72,29.63,10,9,6,26,12,39,0.07,6,Rain-Thunderstorm,223